sensor_id;sensor_type;location;lat;lon;timestamp;pressure;altitude;pressure_sealevel;temperature
53412;BMP280;39307;52.870;13.660;2022-08-16T00:01:47;100015.25;;;19.51
53412;BMP280;39307;52.870;13.660;2022-08-16T00:04:13;100025.31;;;19.49
53412;BMP280;39307;52.870;13.660;2022-08-16T00:06:40;100039.09;;;19.46
53412;BMP280;39307;52.870;13.660;2022-08-16T00:09:07;100041.72;;;19.41
53412;BMP280;39307;52.870;13.660;2022-08-16T00:11:34;100039.59;;;19.38
53412;BMP280;39307;52.870;13.660;2022-08-16T00:14:00;100041.41;;;19.33
53412;BMP280;39307;52.870;13.660;2022-08-16T00:16:28;100044.84;;;19.33
53412;BMP280;39307;52.870;13.660;2022-08-16T00:18:55;100049.59;;;19.31
53412;BMP280;39307;52.870;13.660;2022-08-16T00:21:21;100041.09;;;19.29
53412;BMP280;39307;52.870;13.660;2022-08-16T00:23:48;100045.00;;;19.22
53412;BMP280;39307;52.870;13.660;2022-08-16T00:26:14;100042.34;;;19.17
53412;BMP280;39307;52.870;13.660;2022-08-16T00:28:40;100046.03;;;19.16
53412;BMP280;39307;52.870;13.660;2022-08-16T00:31:07;100046.88;;;19.21
53412;BMP280;39307;52.870;13.660;2022-08-16T00:33:33;100045.28;;;19.20
53412;BMP280;39307;52.870;13.660;2022-08-16T00:35:59;100044.22;;;19.21
53412;BMP280;39307;52.870;13.660;2022-08-16T00:38:26;100048.16;;;19.14
53412;BMP280;39307;52.870;13.660;2022-08-16T00:40:53;100052.84;;;19.07
53412;BMP280;39307;52.870;13.660;2022-08-16T00:43:23;100053.63;;;19.03
53412;BMP280;39307;52.870;13.660;2022-08-16T00:46:05;100056.22;;;18.98
53412;BMP280;39307;52.870;13.660;2022-08-16T00:48:33;100072.41;;;18.96
53412;BMP280;39307;52.870;13.660;2022-08-16T00:51:00;100071.59;;;18.96
53412;BMP280;39307;52.870;13.660;2022-08-16T00:53:27;100077.41;;;18.93
53412;BMP280;39307;52.870;13.660;2022-08-16T00:55:58;100079.75;;;18.89
53412;BMP280;39307;52.870;13.660;2022-08-16T00:58:28;100084.56;;;18.92
53412;BMP280;39307;52.870;13.660;2022-08-16T01:00:56;100099.03;;;18.85
53412;BMP280;39307;52.870;13.660;2022-08-16T01:03:24;100092.94;;;18.84
53412;BMP280;39307;52.870;13.660;2022-08-16T01:05:52;100100.28;;;18.78
53412;BMP280;39307;52.870;13.660;2022-08-16T01:08:21;100114.28;;;18.73
53412;BMP280;39307;52.870;13.660;2022-08-16T01:10:48;100102.84;;;18.68
53412;BMP280;39307;52.870;13.660;2022-08-16T01:13:22;100117.38;;;18.65
53412;BMP280;39307;52.870;13.660;2022-08-16T01:15:54;100122.63;;;18.60
53412;BMP280;39307;52.870;13.660;2022-08-16T01:18:24;100121.06;;;18.64
53412;BMP280;39307;52.870;13.660;2022-08-16T01:21:00;100109.72;;;18.69
53412;BMP280;39307;52.870;13.660;2022-08-16T01:26:16;100109.22;;;18.72
53412;BMP280;39307;52.870;13.660;2022-08-16T01:28:43;100108.47;;;18.76
53412;BMP280;39307;52.870;13.660;2022-08-16T01:31:12;100105.09;;;18.80
53412;BMP280;39307;52.870;13.660;2022-08-16T01:33:39;100116.72;;;18.79
53412;BMP280;39307;52.870;13.660;2022-08-16T01:36:08;100121.31;;;18.84
53412;BMP280;39307;52.870;13.660;2022-08-16T01:38:39;100114.75;;;18.91
53412;BMP280;39307;52.870;13.660;2022-08-16T01:41:13;100111.91;;;18.98
53412;BMP280;39307;52.870;13.660;2022-08-16T01:43:42;100115.38;;;18.98
53412;BMP280;39307;52.870;13.660;2022-08-16T01:46:21;100111.13;;;18.97
53412;BMP280;39307;52.870;13.660;2022-08-16T01:48:52;100110.53;;;18.90
53412;BMP280;39307;52.870;13.660;2022-08-16T01:51:20;100106.97;;;18.85
53412;BMP280;39307;52.870;13.660;2022-08-16T01:53:47;100108.28;;;18.82
53412;BMP280;39307;52.870;13.660;2022-08-16T01:56:13;100107.97;;;18.79
53412;BMP280;39307;52.870;13.660;2022-08-16T01:58:39;100106.19;;;18.84
53412;BMP280;39307;52.870;13.660;2022-08-16T02:01:06;100110.94;;;18.82
53412;BMP280;39307;52.870;13.660;2022-08-16T02:03:32;100107.19;;;18.78
53412;BMP280;39307;52.870;13.660;2022-08-16T02:05:58;100109.03;;;18.78
53412;BMP280;39307;52.870;13.660;2022-08-16T02:08:25;100112.19;;;18.75
53412;BMP280;39307;52.870;13.660;2022-08-16T02:10:52;100112.97;;;18.76
53412;BMP280;39307;52.870;13.660;2022-08-16T02:13:19;100104.78;;;18.77
53412;BMP280;39307;52.870;13.660;2022-08-16T02:15:45;100107.88;;;18.69
53412;BMP280;39307;52.870;13.660;2022-08-16T02:18:12;100117.38;;;18.65
53412;BMP280;39307;52.870;13.660;2022-08-16T02:20:41;100107.28;;;18.62
53412;BMP280;39307;52.870;13.660;2022-08-16T02:23:08;100113.06;;;18.59
53412;BMP280;39307;52.870;13.660;2022-08-16T02:25:34;100111.44;;;18.58
53412;BMP280;39307;52.870;13.660;2022-08-16T02:28:01;100119.66;;;18.57
53412;BMP280;39307;52.870;13.660;2022-08-16T02:30:29;100132.34;;;18.55
53412;BMP280;39307;52.870;13.660;2022-08-16T02:32:56;100127.31;;;18.53
53412;BMP280;39307;52.870;13.660;2022-08-16T02:35:23;100125.69;;;18.52
53412;BMP280;39307;52.870;13.660;2022-08-16T02:37:52;100122.81;;;18.54
53412;BMP280;39307;52.870;13.660;2022-08-16T02:40:19;100127.91;;;18.60
53412;BMP280;39307;52.870;13.660;2022-08-16T02:42:47;100130.06;;;18.63
53412;BMP280;39307;52.870;13.660;2022-08-16T02:45:15;100132.16;;;18.61
53412;BMP280;39307;52.870;13.660;2022-08-16T02:47:41;100127.63;;;18.57
53412;BMP280;39307;52.870;13.660;2022-08-16T02:50:08;100120.47;;;18.57
53412;BMP280;39307;52.870;13.660;2022-08-16T02:52:35;100120.16;;;18.54
53412;BMP280;39307;52.870;13.660;2022-08-16T02:55:01;100117.75;;;18.52
53412;BMP280;39307;52.870;13.660;2022-08-16T02:57:28;100116.66;;;18.49
53412;BMP280;39307;52.870;13.660;2022-08-16T02:59:54;100119.00;;;18.45
53412;BMP280;39307;52.870;13.660;2022-08-16T03:02:21;100119.75;;;18.41
53412;BMP280;39307;52.870;13.660;2022-08-16T03:04:47;100124.22;;;18.40
53412;BMP280;39307;52.870;13.660;2022-08-16T03:07:13;100121.03;;;18.38
53412;BMP280;39307;52.870;13.660;2022-08-16T03:09:40;100120.78;;;18.40
53412;BMP280;39307;52.870;13.660;2022-08-16T03:12:06;100117.63;;;18.43
53412;BMP280;39307;52.870;13.660;2022-08-16T03:14:33;100119.00;;;18.45
53412;BMP280;39307;52.870;13.660;2022-08-16T03:17:00;100122.94;;;18.43
53412;BMP280;39307;52.870;13.660;2022-08-16T03:19:31;100125.34;;;18.44
53412;BMP280;39307;52.870;13.660;2022-08-16T03:21:57;100121.41;;;18.47
53412;BMP280;39307;52.870;13.660;2022-08-16T03:24:24;100116.34;;;18.45
53412;BMP280;39307;52.870;13.660;2022-08-16T03:26:50;100118.13;;;18.40
53412;BMP280;39307;52.870;13.660;2022-08-16T03:29:17;100120.25;;;18.38
53412;BMP280;39307;52.870;13.660;2022-08-16T03:31:43;100110.13;;;18.35
53412;BMP280;39307;52.870;13.660;2022-08-16T03:34:09;100107.72;;;18.33
53412;BMP280;39307;52.870;13.660;2022-08-16T03:36:35;100112.13;;;18.28
53412;BMP280;39307;52.870;13.660;2022-08-16T03:39:02;100111.03;;;18.24
53412;BMP280;39307;52.870;13.660;2022-08-16T03:41:28;100114.19;;;18.21
53412;BMP280;39307;52.870;13.660;2022-08-16T03:43:55;100111.78;;;18.20
53412;BMP280;39307;52.870;13.660;2022-08-16T03:46:21;100118.91;;;18.19
53412;BMP280;39307;52.870;13.660;2022-08-16T03:48:48;100129.28;;;18.21
53412;BMP280;39307;52.870;13.660;2022-08-16T03:51:14;100128.47;;;18.20
53412;BMP280;39307;52.870;13.660;2022-08-16T03:53:41;100122.31;;;18.15
53412;BMP280;39307;52.870;13.660;2022-08-16T03:56:09;100121.75;;;18.13
53412;BMP280;39307;52.870;13.660;2022-08-16T03:58:35;100124.06;;;18.09
53412;BMP280;39307;52.870;13.660;2022-08-16T04:01:03;100128.59;;;18.09
53412;BMP280;39307;52.870;13.660;2022-08-16T04:03:30;100125.94;;;18.09
53412;BMP280;39307;52.870;13.660;2022-08-16T04:05:56;100130.91;;;18.05
53412;BMP280;39307;52.870;13.660;2022-08-16T04:08:23;100133.56;;;18.05
53412;BMP280;39307;52.870;13.660;2022-08-16T04:10:53;100138.88;;;18.05
53412;BMP280;39307;52.870;13.660;2022-08-16T04:13:20;100147.31;;;18.02
53412;BMP280;39307;52.870;13.660;2022-08-16T04:15:47;100146.50;;;18.02
53412;BMP280;39307;52.870;13.660;2022-08-16T04:18:13;100147.31;;;18.02
53412;BMP280;39307;52.870;13.660;2022-08-16T04:20:39;100145.34;;;17.98
53412;BMP280;39307;52.870;13.660;2022-08-16T04:23:06;100157.09;;;18.02
53412;BMP280;39307;52.870;13.660;2022-08-16T04:25:32;100154.63;;;18.00
53412;BMP280;39307;52.870;13.660;2022-08-16T04:27:59;100161.22;;;17.98
53412;BMP280;39307;52.870;13.660;2022-08-16T04:30:25;100167.34;;;17.98
53412;BMP280;39307;52.870;13.660;2022-08-16T04:32:53;100160.44;;;17.97
53412;BMP280;39307;52.870;13.660;2022-08-16T04:35:21;100163.19;;;18.02
53412;BMP280;39307;52.870;13.660;2022-08-16T04:37:49;100167.19;;;18.05
53412;BMP280;39307;52.870;13.660;2022-08-16T04:40:16;100174.41;;;18.09
53412;BMP280;39307;52.870;13.660;2022-08-16T04:42:43;100172.81;;;18.08
53412;BMP280;39307;52.870;13.660;2022-08-16T04:45:11;100170.72;;;18.10
53412;BMP280;39307;52.870;13.660;2022-08-16T04:47:39;100167.81;;;18.12
53412;BMP280;39307;52.870;13.660;2022-08-16T04:50:17;100169.19;;;18.14
53412;BMP280;39307;52.870;13.660;2022-08-16T04:52:46;100174.00;;;18.17
53412;BMP280;39307;52.870;13.660;2022-08-16T04:55:16;100188.34;;;18.21
53412;BMP280;39307;52.870;13.660;2022-08-16T04:57:44;100188.91;;;18.23
53412;BMP280;39307;52.870;13.660;2022-08-16T05:00:19;100187.28;;;18.22
53412;BMP280;39307;52.870;13.660;2022-08-16T05:02:49;100187.38;;;18.27
53412;BMP280;39307;52.870;13.660;2022-08-16T05:05:15;100179.50;;;18.32
53412;BMP280;39307;52.870;13.660;2022-08-16T05:07:41;100186.09;;;18.29
53412;BMP280;39307;52.870;13.660;2022-08-16T05:10:08;100172.09;;;18.34
53412;BMP280;39307;52.870;13.660;2022-08-16T05:12:36;100174.81;;;18.39
53412;BMP280;39307;52.870;13.660;2022-08-16T05:15:03;100180.13;;;18.39
53412;BMP280;39307;52.870;13.660;2022-08-16T05:17:30;100178.75;;;18.36
53412;BMP280;39307;52.870;13.660;2022-08-16T05:19:56;100181.50;;;18.41
53412;BMP280;39307;52.870;13.660;2022-08-16T05:22:23;100176.81;;;18.48
53412;BMP280;39307;52.870;13.660;2022-08-16T05:24:49;100179.03;;;18.56
53412;BMP280;39307;52.870;13.660;2022-08-16T05:27:16;100189.47;;;18.62
53412;BMP280;39307;52.870;13.660;2022-08-16T05:29:42;100182.59;;;18.66
53412;BMP280;39307;52.870;13.660;2022-08-16T05:32:09;100188.78;;;18.72
53412;BMP280;39307;52.870;13.660;2022-08-16T05:34:35;100185.06;;;18.73
53412;BMP280;39307;52.870;13.660;2022-08-16T05:37:02;100189.09;;;18.75
53412;BMP280;39307;52.870;13.660;2022-08-16T05:39:28;100190.44;;;18.78
53412;BMP280;39307;52.870;13.660;2022-08-16T05:41:55;100184.69;;;18.85
53412;BMP280;39307;52.870;13.660;2022-08-16T05:44:22;100195.94;;;18.92
53412;BMP280;39307;52.870;13.660;2022-08-16T05:46:53;100196.00;;;18.97
53412;BMP280;39307;52.870;13.660;2022-08-16T05:49:19;100198.41;;;18.99
53412;BMP280;39307;52.870;13.660;2022-08-16T05:51:46;100199.50;;;19.03
53412;BMP280;39307;52.870;13.660;2022-08-16T05:54:14;100200.59;;;19.07
53412;BMP280;39307;52.870;13.660;2022-08-16T05:56:41;100197.53;;;19.14
53412;BMP280;39307;52.870;13.660;2022-08-16T05:59:07;100188.47;;;19.10
53412;BMP280;39307;52.870;13.660;2022-08-16T06:01:34;100188.50;;;19.15
53412;BMP280;39307;52.870;13.660;2022-08-16T06:04:01;100198.91;;;19.22
53412;BMP280;39307;52.870;13.660;2022-08-16T06:06:27;100194.72;;;19.26
53412;BMP280;39307;52.870;13.660;2022-08-16T06:08:53;100199.84;;;19.32
53412;BMP280;39307;52.870;13.660;2022-08-16T06:11:19;100202.28;;;19.38
53412;BMP280;39307;52.870;13.660;2022-08-16T06:13:46;100206.31;;;19.46
53412;BMP280;39307;52.870;13.660;2022-08-16T06:16:12;100203.72;;;19.51
53412;BMP280;39307;52.870;13.660;2022-08-16T06:18:39;100215.50;;;19.65
53412;BMP280;39307;52.870;13.660;2022-08-16T06:21:05;100210.47;;;19.63
53412;BMP280;39307;52.870;13.660;2022-08-16T06:23:32;100211.31;;;19.68
53412;BMP280;39307;52.870;13.660;2022-08-16T06:25:58;100213.22;;;19.73
53412;BMP280;39307;52.870;13.660;2022-08-16T06:28:24;100224.34;;;19.70
53412;BMP280;39307;52.870;13.660;2022-08-16T06:30:50;100223.34;;;19.76
53412;BMP280;39307;52.870;13.660;2022-08-16T06:33:17;100218.31;;;19.74
53412;BMP280;39307;52.870;13.660;2022-08-16T06:35:44;100220.47;;;19.77
53412;BMP280;39307;52.870;13.660;2022-08-16T06:38:10;100222.06;;;19.78
53412;BMP280;39307;52.870;13.660;2022-08-16T06:40:36;100216.81;;;19.88
53412;BMP280;39307;52.870;13.660;2022-08-16T06:43:03;100228.56;;;19.92
53412;BMP280;39307;52.870;13.660;2022-08-16T06:45:30;100220.66;;;20.02
53412;BMP280;39307;52.870;13.660;2022-08-16T06:47:56;100217.50;;;20.10
53412;BMP280;39307;52.870;13.660;2022-08-16T06:50:23;100224.00;;;20.24
53412;BMP280;39307;52.870;13.660;2022-08-16T06:52:49;100225.59;;;20.24
53412;BMP280;39307;52.870;13.660;2022-08-16T06:55:16;100229.88;;;20.30
53412;BMP280;39307;52.870;13.660;2022-08-16T06:57:42;100235.22;;;20.35
53412;BMP280;39307;52.870;13.660;2022-08-16T07:00:11;100232.91;;;20.44
53412;BMP280;39307;52.870;13.660;2022-08-16T07:02:41;100228.66;;;20.48
53412;BMP280;39307;52.870;13.660;2022-08-16T07:05:10;100237.78;;;20.56
53412;BMP280;39307;52.870;13.660;2022-08-16T07:07:38;100233.34;;;20.72
53412;BMP280;39307;52.870;13.660;2022-08-16T07:10:06;100235.25;;;20.81
53412;BMP280;39307;52.870;13.660;2022-08-16T07:12:33;100236.34;;;20.95
53412;BMP280;39307;52.870;13.660;2022-08-16T07:14:59;100239.84;;;21.00
53412;BMP280;39307;52.870;13.660;2022-08-16T07:17:26;100243.38;;;21.20
53412;BMP280;39307;52.870;13.660;2022-08-16T07:19:54;100248.41;;;21.22
53412;BMP280;39307;52.870;13.660;2022-08-16T07:22:21;100247.38;;;21.28
53412;BMP280;39307;52.870;13.660;2022-08-16T07:24:47;100246.38;;;21.39
53412;BMP280;39307;52.870;13.660;2022-08-16T07:27:13;100252.00;;;21.52
53412;BMP280;39307;52.870;13.660;2022-08-16T07:29:40;100255.75;;;21.66
53412;BMP280;39307;52.870;13.660;2022-08-16T07:32:07;100259.75;;;21.88
53412;BMP280;39307;52.870;13.660;2022-08-16T07:34:33;100260.06;;;22.11
53412;BMP280;39307;52.870;13.660;2022-08-16T07:37:08;100245.63;;;22.36
53412;BMP280;39307;52.870;13.660;2022-08-16T07:39:34;100255.94;;;22.82
53412;BMP280;39307;52.870;13.660;2022-08-16T07:42:00;100244.28;;;23.21
53412;BMP280;39307;52.870;13.660;2022-08-16T07:44:27;100246.53;;;23.52
53412;BMP280;39307;52.870;13.660;2022-08-16T07:46:54;100242.91;;;24.09
53412;BMP280;39307;52.870;13.660;2022-08-16T07:49:20;100241.28;;;24.64
53412;BMP280;39307;52.870;13.660;2022-08-16T07:51:47;100238.97;;;25.04
53412;BMP280;39307;52.870;13.660;2022-08-16T07:54:13;100228.44;;;25.49
53412;BMP280;39307;52.870;13.660;2022-08-16T07:56:39;100230.44;;;25.93
53412;BMP280;39307;52.870;13.660;2022-08-16T07:59:06;100227.38;;;26.31
53412;BMP280;39307;52.870;13.660;2022-08-16T08:01:33;100229.03;;;26.85
53412;BMP280;39307;52.870;13.660;2022-08-16T08:04:00;100224.94;;;27.14
53412;BMP280;39307;52.870;13.660;2022-08-16T08:06:28;100239.69;;;27.51
53412;BMP280;39307;52.870;13.660;2022-08-16T08:08:55;100239.25;;;27.92
53412;BMP280;39307;52.870;13.660;2022-08-16T08:11:22;100235.69;;;28.27
53412;BMP280;39307;52.870;13.660;2022-08-16T08:13:53;100243.00;;;28.65
53412;BMP280;39307;52.870;13.660;2022-08-16T08:16:19;100238.16;;;28.75
53412;BMP280;39307;52.870;13.660;2022-08-16T08:18:47;100247.41;;;28.99
53412;BMP280;39307;52.870;13.660;2022-08-16T08:21:14;100239.91;;;29.26
53412;BMP280;39307;52.870;13.660;2022-08-16T08:23:40;100241.00;;;29.59
53412;BMP280;39307;52.870;13.660;2022-08-16T08:26:06;100234.69;;;29.96
53412;BMP280;39307;52.870;13.660;2022-08-16T08:28:33;100238.00;;;30.19
53412;BMP280;39307;52.870;13.660;2022-08-16T08:31:00;100224.91;;;30.37
53412;BMP280;39307;52.870;13.660;2022-08-16T08:33:27;100230.97;;;30.34
53412;BMP280;39307;52.870;13.660;2022-08-16T08:35:58;100221.03;;;30.55
53412;BMP280;39307;52.870;13.660;2022-08-16T08:38:25;100227.44;;;30.87
53412;BMP280;39307;52.870;13.660;2022-08-16T08:40:52;100231.56;;;31.13
53412;BMP280;39307;52.870;13.660;2022-08-16T08:43:18;100221.28;;;31.36
53412;BMP280;39307;52.870;13.660;2022-08-16T08:45:45;100228.41;;;31.60
53412;BMP280;39307;52.870;13.660;2022-08-16T08:48:12;100233.13;;;31.83
53412;BMP280;39307;52.870;13.660;2022-08-16T08:50:38;100232.97;;;32.00
53412;BMP280;39307;52.870;13.660;2022-08-16T08:53:04;100238.44;;;32.12
53412;BMP280;39307;52.870;13.660;2022-08-16T08:55:31;100228.59;;;32.07
53412;BMP280;39307;52.870;13.660;2022-08-16T08:57:57;100231.31;;;32.39
53412;BMP280;39307;52.870;13.660;2022-08-16T09:00:24;100235.16;;;32.62
53412;BMP280;39307;52.870;13.660;2022-08-16T09:02:51;100221.66;;;32.85
53412;BMP280;39307;52.870;13.660;2022-08-16T09:05:18;100232.59;;;33.01
53412;BMP280;39307;52.870;13.660;2022-08-16T09:07:44;100226.81;;;33.38
53412;BMP280;39307;52.870;13.660;2022-08-16T09:10:11;100223.16;;;33.45
53412;BMP280;39307;52.870;13.660;2022-08-16T09:12:38;100219.56;;;33.69
53412;BMP280;39307;52.870;13.660;2022-08-16T09:15:06;100225.34;;;33.67
53412;BMP280;39307;52.870;13.660;2022-08-16T09:17:33;100220.84;;;33.71
53412;BMP280;39307;52.870;13.660;2022-08-16T09:19:59;100216.47;;;33.55
53412;BMP280;39307;52.870;13.660;2022-08-16T09:22:26;100215.03;;;33.84
53412;BMP280;39307;52.870;13.660;2022-08-16T09:24:54;100227.25;;;34.05
53412;BMP280;39307;52.870;13.660;2022-08-16T09:27:22;100220.31;;;34.50
53412;BMP280;39307;52.870;13.660;2022-08-16T09:29:48;100217.59;;;34.65
53412;BMP280;39307;52.870;13.660;2022-08-16T09:32:14;100217.25;;;34.82
53412;BMP280;39307;52.870;13.660;2022-08-16T09:34:40;100216.91;;;34.68
53412;BMP280;39307;52.870;13.660;2022-08-16T09:37:07;100216.78;;;34.95
53412;BMP280;39307;52.870;13.660;2022-08-16T09:39:33;100218.00;;;34.98
53412;BMP280;39307;52.870;13.660;2022-08-16T09:41:59;100217.78;;;34.88
53412;BMP280;39307;52.870;13.660;2022-08-16T09:44:26;100211.69;;;35.09
53412;BMP280;39307;52.870;13.660;2022-08-16T09:46:54;100213.72;;;35.12
53412;BMP280;39307;52.870;13.660;2022-08-16T09:49:20;100214.63;;;34.70
53412;BMP280;39307;52.870;13.660;2022-08-16T09:51:48;100219.91;;;34.06
53412;BMP280;39307;52.870;13.660;2022-08-16T09:54:14;100215.09;;;34.15
53412;BMP280;39307;52.870;13.660;2022-08-16T09:56:41;100217.88;;;34.45
53412;BMP280;39307;52.870;13.660;2022-08-16T09:59:09;100225.94;;;34.57
53412;BMP280;39307;52.870;13.660;2022-08-16T10:01:36;100219.34;;;34.58
53412;BMP280;39307;52.870;13.660;2022-08-16T10:04:03;100203.22;;;34.80
53412;BMP280;39307;52.870;13.660;2022-08-16T10:06:30;100214.63;;;34.70
53412;BMP280;39307;52.870;13.660;2022-08-16T10:08:56;100209.88;;;34.52
53412;BMP280;39307;52.870;13.660;2022-08-16T10:11:23;100204.88;;;34.85
53412;BMP280;39307;52.870;13.660;2022-08-16T10:13:49;100205.63;;;35.16
53412;BMP280;39307;52.870;13.660;2022-08-16T10:16:15;100201.09;;;34.89
53412;BMP280;39307;52.870;13.660;2022-08-16T10:18:42;100209.28;;;35.08
53412;BMP280;39307;52.870;13.660;2022-08-16T10:21:08;100199.75;;;35.14
53412;BMP280;39307;52.870;13.660;2022-08-16T10:23:34;100202.47;;;34.98
53412;BMP280;39307;52.870;13.660;2022-08-16T10:26:01;100203.22;;;35.29
53412;BMP280;39307;52.870;13.660;2022-08-16T10:28:28;100197.88;;;35.70
53412;BMP280;39307;52.870;13.660;2022-08-16T10:30:55;100204.53;;;35.91
53412;BMP280;39307;52.870;13.660;2022-08-16T10:33:22;100199.06;;;36.10
53412;BMP280;39307;52.870;13.660;2022-08-16T10:35:48;100195.28;;;36.37
53412;BMP280;39307;52.870;13.660;2022-08-16T10:38:14;100198.72;;;36.56
53412;BMP280;39307;52.870;13.660;2022-08-16T10:40:40;100197.31;;;36.65
53412;BMP280;39307;52.870;13.660;2022-08-16T10:43:07;100193.78;;;36.87
53412;BMP280;39307;52.870;13.660;2022-08-16T10:45:33;100195.31;;;36.84
53412;BMP280;39307;52.870;13.660;2022-08-16T10:48:00;100200.28;;;36.79
53412;BMP280;39307;52.870;13.660;2022-08-16T10:50:27;100197.28;;;37.09
53412;BMP280;39307;52.870;13.660;2022-08-16T10:52:53;100197.16;;;37.57
53412;BMP280;39307;52.870;13.660;2022-08-16T10:55:20;100199.53;;;37.91
53412;BMP280;39307;52.870;13.660;2022-08-16T10:57:47;100203.19;;;37.73
53412;BMP280;39307;52.870;13.660;2022-08-16T11:00:16;100203.59;;;37.42
53412;BMP280;39307;52.870;13.660;2022-08-16T11:02:43;100208.88;;;36.81
53412;BMP280;39307;52.870;13.660;2022-08-16T11:05:13;100203.00;;;36.79
53412;BMP280;39307;52.870;13.660;2022-08-16T11:07:47;100197.47;;;37.52
53412;BMP280;39307;52.870;13.660;2022-08-16T11:10:17;100191.00;;;37.99
53412;BMP280;39307;52.870;13.660;2022-08-16T11:12:44;100195.84;;;38.13
53412;BMP280;39307;52.870;13.660;2022-08-16T11:15:11;100199.56;;;37.94
53412;BMP280;39307;52.870;13.660;2022-08-16T11:17:37;100197.34;;;38.07
53412;BMP280;39307;52.870;13.660;2022-08-16T11:20:05;100207.72;;;37.62
53412;BMP280;39307;52.870;13.660;2022-08-16T11:22:31;100216.94;;;36.48
53412;BMP280;39307;52.870;13.660;2022-08-16T11:24:57;100216.81;;;35.82
53412;BMP280;39307;52.870;13.660;2022-08-16T11:27:24;100223.28;;;35.96
53412;BMP280;39307;52.870;13.660;2022-08-16T11:29:52;100207.56;;;36.27
53412;BMP280;39307;52.870;13.660;2022-08-16T11:32:20;100204.72;;;36.42
53412;BMP280;39307;52.870;13.660;2022-08-16T11:34:47;100217.78;;;36.78
53412;BMP280;39307;52.870;13.660;2022-08-16T11:37:13;100224.16;;;37.11
53412;BMP280;39307;52.870;13.660;2022-08-16T11:39:39;100214.50;;;37.17
53412;BMP280;39307;52.870;13.660;2022-08-16T11:42:06;100219.09;;;37.64
53412;BMP280;39307;52.870;13.660;2022-08-16T11:44:32;100206.53;;;37.88
53412;BMP280;39307;52.870;13.660;2022-08-16T11:46:58;100210.50;;;37.94
53412;BMP280;39307;52.870;13.660;2022-08-16T11:49:25;100207.78;;;37.98
53412;BMP280;39307;52.870;13.660;2022-08-16T11:51:51;100212.00;;;38.24
53412;BMP280;39307;52.870;13.660;2022-08-16T11:54:18;100207.03;;;38.37
53412;BMP280;39307;52.870;13.660;2022-08-16T11:56:44;100207.75;;;38.30
53412;BMP280;39307;52.870;13.660;2022-08-16T11:59:10;100208.28;;;38.43
53412;BMP280;39307;52.870;13.660;2022-08-16T12:01:37;100203.72;;;38.60
53412;BMP280;39307;52.870;13.660;2022-08-16T12:04:03;100198.91;;;38.93
53412;BMP280;39307;52.870;13.660;2022-08-16T12:06:30;100206.31;;;38.93
53412;BMP280;39307;52.870;13.660;2022-08-16T12:08:57;100196.81;;;38.73
53412;BMP280;39307;52.870;13.660;2022-08-16T12:11:24;100213.38;;;38.94
53412;BMP280;39307;52.870;13.660;2022-08-16T12:13:51;100212.47;;;38.73
53412;BMP280;39307;52.870;13.660;2022-08-16T12:16:18;100211.59;;;38.22
53412;BMP280;39307;52.870;13.660;2022-08-16T12:18:44;100212.78;;;38.25
53412;BMP280;39307;52.870;13.660;2022-08-16T12:21:11;100213.66;;;38.36
53412;BMP280;39307;52.870;13.660;2022-08-16T12:23:37;100205.13;;;38.41
53412;BMP280;39307;52.870;13.660;2022-08-16T12:26:04;100202.91;;;37.81
53412;BMP280;39307;52.870;13.660;2022-08-16T12:28:33;100201.31;;;38.13
53412;BMP280;39307;52.870;13.660;2022-08-16T12:30:59;100208.84;;;38.22
53412;BMP280;39307;52.870;13.660;2022-08-16T12:33:25;100214.38;;;38.29
53412;BMP280;39307;52.870;13.660;2022-08-16T12:35:52;100210.19;;;38.81
53412;BMP280;39307;52.870;13.660;2022-08-16T12:38:18;100219.75;;;39.11
53412;BMP280;39307;52.870;13.660;2022-08-16T12:40:48;100206.13;;;39.15
53412;BMP280;39307;52.870;13.660;2022-08-16T12:43:16;100204.38;;;38.47
53412;BMP280;39307;52.870;13.660;2022-08-16T12:45:48;100205.09;;;38.37
53412;BMP280;39307;52.870;13.660;2022-08-16T12:48:18;100199.59;;;38.80
53412;BMP280;39307;52.870;13.660;2022-08-16T12:50:45;100196.25;;;39.03
53412;BMP280;39307;52.870;13.660;2022-08-16T12:53:12;100191.19;;;39.05
53412;BMP280;39307;52.870;13.660;2022-08-16T12:55:38;100198.50;;;38.88
53412;BMP280;39307;52.870;13.660;2022-08-16T12:58:04;100204.13;;;38.62
53412;BMP280;39307;52.870;13.660;2022-08-16T13:00:31;100202.31;;;38.30
53412;BMP280;39307;52.870;13.660;2022-08-16T13:03:00;100202.97;;;37.55
53412;BMP280;39307;52.870;13.660;2022-08-16T13:05:27;100210.34;;;37.52
53412;BMP280;39307;52.870;13.660;2022-08-16T13:07:53;100201.66;;;37.43
53412;BMP280;39307;52.870;13.660;2022-08-16T13:10:20;100200.03;;;37.13
53412;BMP280;39307;52.870;13.660;2022-08-16T13:12:50;100213.06;;;36.75
53412;BMP280;39307;52.870;13.660;2022-08-16T13:15:23;100201.50;;;36.37
53412;BMP280;39307;52.870;13.660;2022-08-16T13:17:50;100205.88;;;36.19
53412;BMP280;39307;52.870;13.660;2022-08-16T13:20:20;100205.53;;;35.83
53412;BMP280;39307;52.870;13.660;2022-08-16T13:22:53;100210.31;;;35.34
53412;BMP280;39307;52.870;13.660;2022-08-16T13:25:25;100208.88;;;35.06
53412;BMP280;39307;52.870;13.660;2022-08-16T13:27:53;100214.19;;;34.68
53412;BMP280;39307;52.870;13.660;2022-08-16T13:30:20;100213.47;;;34.87
53412;BMP280;39307;52.870;13.660;2022-08-16T13:32:47;100198.28;;;35.01
53412;BMP280;39307;52.870;13.660;2022-08-16T13:35:13;100198.81;;;34.91
53412;BMP280;39307;52.870;13.660;2022-08-16T13:37:40;100209.19;;;34.86
53412;BMP280;39307;52.870;13.660;2022-08-16T13:40:06;100210.31;;;34.85
53412;BMP280;39307;52.870;13.660;2022-08-16T13:42:33;100212.44;;;34.76
53412;BMP280;39307;52.870;13.660;2022-08-16T13:44:59;100213.84;;;34.70
53412;BMP280;39307;52.870;13.660;2022-08-16T13:47:26;100205.00;;;34.73